Davisburg, Kentucky
Current Conditions -  °F | °C
As of 4:35 AM on Monday 22 Dec 2014 (Local Time) from K1A6 Reporting Station
Overcast Overcast  
Wind Chill: 44°   Ceiling: 3100
Heat Index: 44°   Visibility: 10mi
Dew Point: 37°   Wind: 3mph
Humidity: 77%   Direction: 240°WSW
Pressure: 30.04"   Gusts: NA
Location:  36.7417°N, 83.6911°W
Report Text: K1A6 220935Z AUTO 24003KT 10SM OVC031 06/03 A3004 RMK AO2 T00640027
Loading
Personal Weather Stations






























Interactive Weather Map New forecast layout! Learn more

10-Day Weather Forecast

Advertisements
Track Severe Weather on mobile